To NAV CANADA Home Page Login to a new session Search on AWWS site Feedback and Comments Disclaimer Vers la page française équivalente Tips FAQ What's new on the site To the Forecasts and Observations / NOTAM section To "File a Flight Plan" website Publications and other links Update of the User's profile FIC Telephone Numbers My Weather Data Folder Route Weather Data Regional Weather Data Local Weather Data To the Forecasts and Observations / NOTAM section
Request Generated 02/12/2016 at 05:26:16 UTC . Weather information available at that time is displayed.

METAR/TAF

SAINT JOHN/NB    

METAR CYSJ 120500Z 33012KT 15SM FEW021 M11/M13 A2966 RMK SC2 SLP054=
SPECI CYSJ 120445Z 32010KT 15SM FEW020 M11/M13 A2966 RMK NS2 SLP051=
METAR CYSJ 120400Z 32010KT 15SM -SHSN FEW012 SCT025 M11/M13 A2964 RMK
NS1SC2 SLP047=
SPECI CYSJ 120346Z 32010KT 15SM -SHSN FEW012 SCT022 M11/M12 A2964 RMK
SC1SC2 SLP045=
METAR CYSJ 120300Z 31008KT 15SM FEW065 SCT080 M11/M12 A2963 RMK
SC2AC1 SLP042=

TAF CYSJ 112338Z 1200/1212 31012KT P6SM SCT020 BKN060 TEMPO 1200/1203
BKN020 OVC060
FM120300 31010KT P6SM SCT040
BECMG 1204/1206 31010G20KT
RMK NXT FCST BY 120600Z=
Your time UTC time
Weather data provided by Environment Canada and NAV CANADA